Arcadia Highway — 3FQT4 — position and weather

sailwx.info

Track history (hours):
 
Tides and Currents Weather Stations Pressure Air Temp Water Temp Dewpoint Dewpoint Depression Visibility Wind Speed Wind Dir Waves Ship Positions

Arcadia Highway

Last reported at 2015-Jul-05 13:33 UTC. Time now 2015-Jul-06 02:48 UTC.
Position N 34°30' E 121°55'.

Length 179 m; draft 7.8 m.

Type: Cargo ship. MMSI: 354342000.

Date/timePositionNaut miles runAvg speedWind from/ knotsBaromVisibWave heightAir tempDewpointWater temp
2015-Jul-05 13:33N 34°30' E 121°55'5215.5
2015-Jul-05 10:12N 34°53' E 120°58'2615.0
2015-Jul-05 08:27N 34°57' E 120°26'1213.4
2015-Jul-05 07:33N 34°56' E 120°12'1515.2
2015-Jul-05 06:33N 34°54' E 119°53'1414.1
2015-Jul-05 05:32N 34°48' E 119°38'10 9.8
2015-Jul-05 04:33N 34°45' E 119°26'2 2.1
2015-Jul-05 03:33N 34°45' E 119°24'0 0.0
2015-Jul-05 02:27N 34°45' E 119°24'0 0.0
2015-Jul-05 01:15N 34°45' E 119°24'0 0.0
2015-Jul-05 00:27N 34°45' E 119°24'0 0.0
2015-Jul-04 23:33N 34°45' E 119°24'0 0.0
2015-Jul-04 21:21N 34°45' E 119°24'0 0.0
2015-Jul-04 20:27N 34°45' E 119°24'0 0.0
2015-Jul-04 19:27N 34°45' E 119°24'0 0.0
2015-Jul-04 18:15N 34°45' E 119°24'0 0.0
2015-Jul-04 16:27N 34°45' E 119°24'0 0.0
2015-Jul-04 15:33N 34°45' E 119°24'0 0.0
2015-Jul-04 13:33N 34°45' E 119°24'0 0.0
2015-Jul-04 12:30N 34°45' E 119°24'6 6.6
2015-Jul-04 11:33N 34°45' E 119°31'10 8.1
2015-Jul-04 10:22N 34°49' E 119°42'6 2.7
2015-Jul-04 08:06N 34°54' E 119°47'0 0.0
2015-Jul-04 04:24N 34°54' E 119°47'0 0.0
2015-Jul-04 03:30N 34°54' E 119°47'0 0.0
2015-Jul-04 02:30N 34°54' E 119°47'0 0.0
2015-Jul-04 01:24N 34°54' E 119°47'0 0.0
2015-Jul-04 00:24N 34°54' E 119°47'0 0.0
2015-Jul-03 23:30N 34°54' E 119°47'0 0.0
2015-Jul-03 22:29N 34°54' E 119°47'6 5.4
2015-Jul-03 21:26N 34°56' E 119°53'1314.9
2015-Jul-03 20:32N 34°56' E 120°09'6816.9
2015-Jul-03 16:30N 34°52' E 121°32'1715.9
2015-Jul-03 15:27N 34°46' E 121°51'1515.7
2015-Jul-03 14:31N 34°40' E 122°08'3415.7
2015-Jul-03 12:23N 34°26' E 122°45'1415.6
2015-Jul-03 11:29N 34°20' E 123°00'1415.3
2015-Jul-03 10:32N 34°14' E 123°16'6315.6
2015-Jul-03 06:32N 33°45' E 124°23'5016.3
2015-Jul-03 03:25N 33°21' E 125°16'  
2015-Jun-30 17:14N 35°01' E 139°40'1115.7
2015-Jun-30 16:33N 35°11' E 139°46'1211.7
2015-Jun-30 15:33N 35°22' E 139°42'6 5.4
2015-Jun-30 14:28N 35°28' E 139°41'0 0.0
2015-Jun-30 13:28N 35°28' E 139°41'0 0.0
2015-Jun-30 12:28N 35°28' E 139°41'0 0.0
2015-Jun-30 11:28N 35°28' E 139°41'0 0.0
2015-Jun-30 10:28N 35°28' E 139°41'0 0.0
2015-Jun-30 09:28N 35°28' E 139°41'0 0.0
2015-Jun-30 08:28N 35°28' E 139°41'0 0.0
2015-Jun-30 07:28N 35°28' E 139°41'0 0.0
2015-Jun-30 06:28N 35°28' E 139°41'0 0.0
2015-Jun-30 05:28N 35°28' E 139°41'0 0.0
2015-Jun-30 04:22N 35°28' E 139°41'0 0.0
2015-Jun-30 03:28N 35°28' E 139°41'0 0.0
2015-Jun-30 02:28N 35°28' E 139°41'0 0.0
2015-Jun-30 01:28N 35°28' E 139°41'0 0.0
2015-Jun-30 00:28N 35°28' E 139°41'0 0.0
2015-Jun-29 23:22N 35°28' E 139°41'0 0.0
2015-Jun-29 22:33N 35°28' E 139°41'2 2.5
2015-Jun-29 21:34N 35°27' E 139°43'9 9.1
2015-Jun-29 20:33N 35°18' E 139°45'1110.8
2015-Jun-29 19:33N 35°07' E 139°46'  
Track history (hours):
 
Tides and Currents Weather Stations Pressure Air Temp Water Temp Dewpoint Dewpoint Depression Visibility Wind Speed Wind Dir Waves Ship Positions

Arcadia Highway

Last reported at 2015-Jul-05 13:33 UTC. Time now 2015-Jul-06 02:48 UTC.
Position N 34°30' E 121°55'.

Length 179 m; draft 7.8 m.

Type: Cargo ship. MMSI: 354342000.

Date/timePositionNaut miles runAvg speedWind from/ knotsBaromVisibWave heightAir tempDewpointWater temp
2015-Jul-05 13:33N 34°30' E 121°55'5215.5
2015-Jul-05 10:12N 34°53' E 120°58'2615.0
2015-Jul-05 08:27N 34°57' E 120°26'1213.4
2015-Jul-05 07:33N 34°56' E 120°12'1515.2
2015-Jul-05 06:33N 34°54' E 119°53'1414.1
2015-Jul-05 05:32N 34°48' E 119°38'10 9.8
2015-Jul-05 04:33N 34°45' E 119°26'2 2.1
2015-Jul-05 03:33N 34°45' E 119°24'0 0.0
2015-Jul-05 02:27N 34°45' E 119°24'0 0.0
2015-Jul-05 01:15N 34°45' E 119°24'0 0.0
2015-Jul-05 00:27N 34°45' E 119°24'0 0.0
2015-Jul-04 23:33N 34°45' E 119°24'0 0.0
2015-Jul-04 21:21N 34°45' E 119°24'0 0.0
2015-Jul-04 20:27N 34°45' E 119°24'0 0.0
2015-Jul-04 19:27N 34°45' E 119°24'0 0.0
2015-Jul-04 18:15N 34°45' E 119°24'0 0.0
2015-Jul-04 16:27N 34°45' E 119°24'0 0.0
2015-Jul-04 15:33N 34°45' E 119°24'0 0.0
2015-Jul-04 13:33N 34°45' E 119°24'0 0.0
2015-Jul-04 12:30N 34°45' E 119°24'6 6.6
2015-Jul-04 11:33N 34°45' E 119°31'10 8.1
2015-Jul-04 10:22N 34°49' E 119°42'6 2.7
2015-Jul-04 08:06N 34°54' E 119°47'0 0.0
2015-Jul-04 04:24N 34°54' E 119°47'0 0.0
2015-Jul-04 03:30N 34°54' E 119°47'0 0.0
2015-Jul-04 02:30N 34°54' E 119°47'0 0.0
2015-Jul-04 01:24N 34°54' E 119°47'0 0.0
2015-Jul-04 00:24N 34°54' E 119°47'0 0.0
2015-Jul-03 23:30N 34°54' E 119°47'0 0.0
2015-Jul-03 22:29N 34°54' E 119°47'6 5.4
2015-Jul-03 21:26N 34°56' E 119°53'1314.9
2015-Jul-03 20:32N 34°56' E 120°09'6816.9
2015-Jul-03 16:30N 34°52' E 121°32'1715.9
2015-Jul-03 15:27N 34°46' E 121°51'1515.7
2015-Jul-03 14:31N 34°40' E 122°08'3415.7
2015-Jul-03 12:23N 34°26' E 122°45'1415.6
2015-Jul-03 11:29N 34°20' E 123°00'1415.3
2015-Jul-03 10:32N 34°14' E 123°16'6315.6
2015-Jul-03 06:32N 33°45' E 124°23'5016.3
2015-Jul-03 03:25N 33°21' E 125°16'  
2015-Jun-30 17:14N 35°01' E 139°40'1115.7
2015-Jun-30 16:33N 35°11' E 139°46'1211.7
2015-Jun-30 15:33N 35°22' E 139°42'6 5.4
2015-Jun-30 14:28N 35°28' E 139°41'0 0.0
2015-Jun-30 13:28N 35°28' E 139°41'0 0.0
2015-Jun-30 12:28N 35°28' E 139°41'0 0.0
2015-Jun-30 11:28N 35°28' E 139°41'0 0.0
2015-Jun-30 10:28N 35°28' E 139°41'0 0.0
2015-Jun-30 09:28N 35°28' E 139°41'0 0.0
2015-Jun-30 08:28N 35°28' E 139°41'0 0.0
2015-Jun-30 07:28N 35°28' E 139°41'0 0.0
2015-Jun-30 06:28N 35°28' E 139°41'0 0.0
2015-Jun-30 05:28N 35°28' E 139°41'0 0.0
2015-Jun-30 04:22N 35°28' E 139°41'0 0.0
2015-Jun-30 03:28N 35°28' E 139°41'0 0.0
2015-Jun-30 02:28N 35°28' E 139°41'0 0.0
2015-Jun-30 01:28N 35°28' E 139°41'0 0.0
2015-Jun-30 00:28N 35°28' E 139°41'0 0.0
2015-Jun-29 23:22N 35°28' E 139°41'0 0.0
2015-Jun-29 22:33N 35°28' E 139°41'2 2.5
2015-Jun-29 21:34N 35°27' E 139°43'9 9.1
2015-Jun-29 20:33N 35°18' E 139°45'1110.8
2015-Jun-29 19:33N 35°07' E 139°46'  

Dump ship's entire track history